This is the latest recevied weather packets stored in our database for station/object KC5CAM-13. If no packets are shown the sender has not sent any weather packets the latest 10 day(s).
| Time | Temp. | Humidity | Pressure | Rain* | Wind** | Luminosity | Snow |
|---|---|---|---|---|---|---|---|
| 1777575171 | 17.78° C | 75% | 1015.3 hPa | 0 mm | - | 115 W/m² | - |
| 1777574867 | 18.89° C | 76% | 1015.1 hPa | 0 mm | - | 157 W/m² | - |
| 1777574565 | 18.33° C | 78% | 1014.9 hPa | 0 mm | - | 174 W/m² | - |
| 1777574261 | 17.78° C | 79% | 1014.7 hPa | 0 mm | - | 271 W/m² | - |
| 1777573956 | 17.78° C | 79% | 1015.1 hPa | 0 mm | - | 161 W/m² | - |
| 1777573651 | 17.78° C | 78% | 1014.8 hPa | 0 mm | - | 134 W/m² | - |
| 1777573348 | 17.78° C | 78% | 1015.1 hPa | 0 mm | - | 84 W/m² | - |
| 1777573043 | 18.33° C | 80% | 1015 hPa | 0 mm | - | 84 W/m² | - |
| 1777572741 | 18.33° C | 79% | 1014.4 hPa | 0 mm | - | 298 W/m² | - |
| 1777572435 | 17.78° C | 81% | 1014.1 hPa | 0 mm | - | 304 W/m² | - |
| 1777572132 | 17.78° C | 82% | 1014.2 hPa | 0 mm | - | 302 W/m² | - |
| 1777571827 | 17.22° C | 84% | 1014.1 hPa | 0 mm | - | 308 W/m² | - |
| 1777571523 | 16.67° C | 84% | 1015 hPa | 0 mm | - | 108 W/m² | - |
| 1777571220 | 16.67° C | 84% | 1015.5 hPa | 0 mm | - | 63 W/m² | - |
| 1777570915 | 16.67° C | 84% | 1016 hPa | 0 mm | - | 50 W/m² | - |
| 1777570611 | 16.67° C | 84% | 1016.4 hPa | 0 mm | - | 38 W/m² | - |
| 1777570309 | 16.67° C | 84% | 1016 hPa | 0 mm | - | 52 W/m² | - |
| 1777570004 | 16.67° C | 84% | 1016.2 hPa | 0 mm | - | 52 W/m² | - |
| 1777569700 | 16.67° C | 84% | 1016.2 hPa | 0 mm | - | 33 W/m² | - |
| 1777569396 | 16.67° C | 83% | 1016.7 hPa | 0 mm | - | 25 W/m² | - |
| 1777569093 | 17.22° C | 83% | 1016.7 hPa | 0 mm | - | 27 W/m² | - |
| 1777568789 | 17.22° C | 83% | 1016.3 hPa | 0 mm | - | 37 W/m² | - |
| 1777568487 | 17.22° C | 82% | 1016.3 hPa | 0 mm | - | 60 W/m² | - |
| 1777568183 | 17.22° C | 82% | 1016.1 hPa | 0 mm | - | 87 W/m² | - |
| 1777567881 | 17.22° C | 82% | 1016.3 hPa | 0 mm | - | 70 W/m² | - |
* Rain latest hour (hover to see other rain measurements)
** Current wind speed in m/s (hover to see current wind gust speed)